createdAt,value
2018-09-29T00:05:07.415Z,11.90
2018-09-29T00:15:08.703Z,12.00
2018-09-29T00:25:09.988Z,12.00
2018-09-29T00:35:11.242Z,11.90
2018-09-29T00:45:12.537Z,11.80
2018-09-29T00:55:13.838Z,11.70
2018-09-29T01:05:15.978Z,11.80
2018-09-29T01:15:17.247Z,11.80
2018-09-29T01:25:19.292Z,11.20
2018-09-29T01:35:20.568Z,11.20
2018-09-29T01:45:21.855Z,11.10
2018-09-29T01:55:23.137Z,11.20
2018-09-29T02:05:25.274Z,11.40
2018-09-29T02:15:26.547Z,11.40
2018-09-29T02:25:28.583Z,11.40
2018-09-29T02:35:29.838Z,11.40
2018-09-29T02:45:31.094Z,11.40
2018-09-29T02:55:32.457Z,11.50
2018-09-29T03:05:34.490Z,11.50
2018-09-29T03:15:35.756Z,11.50
2018-09-29T03:25:37.034Z,11.50
2018-09-29T03:35:38.286Z,11.50
2018-09-29T03:45:39.559Z,11.40
2018-09-29T03:55:41.785Z,11.00
2018-09-29T04:05:43.082Z,11.00
2018-09-29T04:15:44.364Z,10.70
2018-09-29T04:25:46.433Z,10.40
2018-09-29T04:35:47.725Z,10.40
2018-09-29T04:45:49.007Z,10.40
2018-09-29T04:55:50.305Z,10.60
2018-09-29T05:05:51.586Z,10.80
2018-09-29T05:15:52.869Z,10.90
2018-09-29T05:25:54.251Z,10.70
2018-09-29T05:35:55.542Z,10.50
2018-09-29T05:45:57.594Z,10.80
2018-09-29T05:55:58.847Z,10.70
2018-09-29T06:06:00.889Z,11.50
2018-09-29T06:16:02.175Z,11.50
2018-09-29T06:26:03.452Z,11.80
2018-09-29T06:36:04.740Z,12.10
2018-09-29T06:46:06.002Z,12.70
2018-09-29T06:56:07.870Z,13.60
2018-09-29T07:06:09.199Z,14.70
2018-09-29T07:16:10.950Z,14.70
2018-09-29T07:26:12.466Z,15.10
2018-09-29T07:36:14.345Z,15.50
2018-09-29T07:46:16.260Z,15.00
2018-09-29T07:56:17.573Z,15.30
2018-09-29T08:06:19.829Z,15.50
2018-09-29T08:16:21.201Z,15.50
2018-09-29T08:26:22.511Z,16.20
2018-09-29T08:36:23.774Z,16.70
2018-09-29T08:46:25.006Z,16.90
2018-09-29T08:56:26.283Z,16.30
2018-09-29T09:06:27.556Z,16.30
2018-09-29T09:16:28.825Z,16.40
2018-09-29T09:26:34.339Z,21.80
2018-09-29T09:36:36.198Z,25.90
2018-09-29T09:46:37.595Z,28.40
2018-09-29T09:56:38.858Z,26.30
2018-09-29T10:06:40.091Z,23.50
2018-09-29T10:16:41.381Z,20.70
2018-09-29T10:26:43.412Z,21.90
2018-09-29T10:36:44.651Z,21.90
2018-09-29T10:46:45.919Z,20.00
2018-09-29T10:56:47.222Z,19.90
2018-09-29T11:06:50.694Z,18.80
2018-09-29T11:16:51.954Z,18.50
2018-09-29T11:26:53.242Z,18.30
2018-09-29T11:36:54.506Z,17.80
2018-09-29T11:46:55.875Z,17.80
2018-09-29T11:56:59.235Z,18.70
2018-09-29T12:07:01.317Z,18.50
2018-09-29T12:17:02.574Z,18.40
2018-09-29T12:27:03.835Z,18.00
2018-09-29T12:37:05.989Z,18.40
2018-09-29T12:47:07.172Z,18.40
2018-09-29T12:57:09.534Z,18.80
2018-09-29T13:07:10.807Z,17.80
2018-09-29T13:17:12.132Z,16.60
2018-09-29T13:27:13.424Z,16.30
2018-09-29T13:37:14.707Z,16.40
2018-09-29T13:47:15.982Z,16.50
2018-09-29T13:57:17.288Z,16.70
2018-09-29T14:07:19.139Z,16.50
2018-09-29T14:17:20.428Z,16.10
2018-09-29T14:27:21.698Z,16.00
2018-09-29T14:37:22.983Z,15.70
2018-09-29T14:47:24.264Z,15.70
2018-09-29T14:57:29.483Z,15.50
2018-09-29T15:07:30.815Z,15.30
2018-09-29T15:17:32.079Z,15.20
2018-09-29T15:27:33.344Z,15.00
2018-09-29T15:37:34.708Z,14.80
2018-09-29T15:47:36.015Z,14.60
2018-09-29T15:57:37.307Z,14.30
2018-09-29T16:07:39.356Z,13.70
2018-09-29T16:17:40.618Z,13.70
2018-09-29T16:27:42.642Z,13.10
2018-09-29T16:37:43.890Z,13.00
2018-09-29T16:47:45.152Z,12.70
2018-09-29T16:57:46.448Z,12.00
2018-09-29T17:07:47.718Z,11.50
2018-09-29T17:17:49.742Z,10.40
2018-09-29T17:27:51.023Z,10.30
2018-09-29T17:37:53.066Z,9.80
2018-09-29T17:47:54.381Z,9.80
2018-09-29T17:57:55.980Z,9.60
2018-09-29T18:07:57.235Z,9.30
2018-09-29T18:17:58.490Z,9.10
2018-09-29T18:27:59.808Z,9.00
2018-09-29T18:38:01.022Z,8.90
2018-09-29T18:48:02.390Z,8.70
2018-09-29T18:58:03.687Z,8.40
2018-09-29T19:08:04.970Z,8.20
2018-09-29T19:18:06.231Z,7.90
2018-09-29T19:28:07.494Z,7.80
2018-09-29T19:38:09.538Z,7.40
2018-09-29T19:48:10.823Z,7.30
2018-09-29T19:58:12.111Z,7.30
2018-09-29T20:08:13.390Z,7.10
2018-09-29T20:18:16.267Z,6.80
2018-09-29T20:28:17.555Z,6.80
2018-09-29T20:38:18.837Z,6.60
2018-09-29T20:48:20.121Z,6.70
2018-09-29T20:58:21.427Z,6.40
2018-09-29T21:08:22.718Z,6.60
2018-09-29T21:28:30.409Z,6.10
2018-09-29T21:38:31.664Z,5.90
2018-09-29T21:48:32.945Z,6.00
2018-09-29T21:58:34.244Z,5.60
2018-09-29T22:08:35.523Z,5.70
2018-09-29T22:18:36.793Z,5.70
2018-09-29T22:28:38.028Z,5.40
2018-09-29T22:38:39.305Z,5.60
2018-09-29T22:48:40.568Z,5.50
2018-09-29T22:58:41.830Z,5.10
2018-09-29T23:08:43.137Z,4.90
2018-09-29T23:18:44.425Z,5.20
2018-09-29T23:28:45.693Z,5.00
2018-09-29T23:38:46.958Z,4.80
2018-09-29T23:48:48.206Z,4.90
2018-09-29T23:58:49.462Z,4.60
